createdAt,value
2023-01-26T00:02:25.849Z,13.37
2023-01-26T00:04:54.069Z,16.33
2023-01-26T00:07:22.333Z,15.17
2023-01-26T00:09:50.196Z,16.37
2023-01-26T00:12:18.367Z,15.47
2023-01-26T00:14:53.544Z,16.43
2023-01-26T00:17:29.108Z,14.03
2023-01-26T00:19:59.063Z,14.07
2023-01-26T00:22:28.641Z,16.50
2023-01-26T00:24:56.370Z,13.90
2023-01-26T00:27:25.524Z,13.97
2023-01-26T00:29:54.820Z,14.53
2023-01-26T00:32:23.119Z,17.47
2023-01-26T00:34:51.301Z,19.43
2023-01-26T00:37:20.495Z,13.80
2023-01-26T00:39:48.295Z,13.37
2023-01-26T00:42:16.481Z,14.37
2023-01-26T00:44:44.408Z,15.90
2023-01-26T00:47:16.760Z,16.93
2023-01-26T00:49:44.774Z,16.63
2023-01-26T00:52:14.163Z,16.37
2023-01-26T00:54:42.416Z,15.20
2023-01-26T00:57:14.168Z,16.60
2023-01-26T00:59:45.594Z,13.03
2023-01-26T01:02:15.440Z,15.67
2023-01-26T01:04:44.027Z,14.07
2023-01-26T01:07:12.109Z,15.40
2023-01-26T01:09:39.815Z,17.80
2023-01-26T01:12:08.121Z,18.97
2023-01-26T01:14:35.822Z,18.87
2023-01-26T01:17:04.287Z,17.33
2023-01-26T01:19:33.829Z,15.70
2023-01-26T01:22:01.691Z,16.27
2023-01-26T01:24:30.159Z,19.53
2023-01-26T01:27:00.288Z,18.80
2023-01-26T01:29:28.881Z,19.67
2023-01-26T01:31:56.864Z,15.33
2023-01-26T01:34:24.690Z,17.33
2023-01-26T01:36:53.650Z,15.80
2023-01-26T01:39:21.327Z,15.83
2023-01-26T01:41:49.377Z,17.20
2023-01-26T01:44:27.444Z,20.23
2023-01-26T01:46:58.455Z,15.90
2023-01-26T01:49:29.179Z,15.57
2023-01-26T01:52:08.010Z,19.13
2023-01-26T01:54:41.065Z,19.57
2023-01-26T01:57:17.710Z,20.17
2023-01-26T01:59:53.116Z,18.60
2023-01-26T02:02:21.149Z,15.63
2023-01-26T02:04:49.238Z,18.90
2023-01-26T02:07:25.328Z,19.83
2023-01-26T02:10:11.273Z,16.37
2023-01-26T02:12:40.028Z,19.30
2023-01-26T02:15:09.627Z,14.23
2023-01-26T02:17:38.026Z,17.80
2023-01-26T02:20:14.028Z,14.83
2023-01-26T02:22:52.989Z,14.23
2023-01-26T02:25:34.008Z,14.53
2023-01-26T02:28:03.186Z,13.53
2023-01-26T02:30:33.745Z,15.53
2023-01-26T02:33:02.030Z,18.33
2023-01-26T02:35:30.028Z,17.10
2023-01-26T02:37:57.951Z,14.93
2023-01-26T02:40:33.862Z,19.43
2023-01-26T02:43:02.920Z,17.57
2023-01-26T02:45:32.881Z,18.20
2023-01-26T02:48:04.841Z,15.77
2023-01-26T02:50:32.075Z,18.27
2023-01-26T02:53:00.724Z,16.63
2023-01-26T02:55:29.362Z,19.20
2023-01-26T02:58:00.640Z,14.47
2023-01-26T03:00:32.594Z,14.00
2023-01-26T03:03:02.730Z,14.47
2023-01-26T03:05:37.915Z,17.30
2023-01-26T03:08:07.735Z,14.80
2023-01-26T03:10:37.731Z,16.17
2023-01-26T03:13:07.819Z,11.80
2023-01-26T03:15:52.995Z,14.63
2023-01-26T03:18:42.156Z,18.10
2023-01-26T03:21:31.537Z,15.10
2023-01-26T03:24:17.075Z,18.27
2023-01-26T03:27:02.962Z,19.90
2023-01-26T03:29:32.774Z,15.77
2023-01-26T03:32:03.563Z,18.57
2023-01-26T03:34:31.724Z,16.43
2023-01-26T03:37:00.224Z,17.20
2023-01-26T03:39:52.272Z,18.03
2023-01-26T03:42:38.658Z,21.03
2023-01-26T03:45:25.354Z,18.43
2023-01-26T03:48:12.458Z,18.00
2023-01-26T03:50:58.133Z,16.57
2023-01-26T03:53:44.254Z,18.83
2023-01-26T03:56:23.510Z,19.93
2023-01-26T03:58:56.561Z,21.87
2023-01-26T04:01:28.059Z,20.27
2023-01-26T04:04:18.517Z,22.53
2023-01-26T04:07:07.799Z,17.43
2023-01-26T04:09:39.603Z,20.47
2023-01-26T04:12:10.348Z,21.53
2023-01-26T04:15:02.416Z,18.87
2023-01-26T04:17:47.748Z,20.20
2023-01-26T04:20:35.354Z,22.53
2023-01-26T04:23:03.612Z,15.33
2023-01-26T04:25:31.986Z,16.87
2023-01-26T04:27:59.903Z,20.63
2023-01-26T04:30:28.057Z,17.23
2023-01-26T04:32:55.820Z,18.50
2023-01-26T04:35:25.589Z,20.37
2023-01-26T04:37:53.911Z,16.30
2023-01-26T04:40:21.939Z,20.97
2023-01-26T04:42:51.163Z,20.20
2023-01-26T04:45:18.854Z,15.93
2023-01-26T04:47:47.494Z,20.37
2023-01-26T04:50:17.961Z,17.60
2023-01-26T04:52:48.709Z,16.30
2023-01-26T04:55:18.180Z,20.97
2023-01-26T04:57:45.893Z,21.93
2023-01-26T05:00:14.478Z,13.57
2023-01-26T05:02:43.484Z,12.63
2023-01-26T05:05:11.955Z,14.57
2023-01-26T05:07:40.800Z,13.43
2023-01-26T05:10:14.532Z,13.60
2023-01-26T05:12:53.108Z,11.90
2023-01-26T05:15:44.024Z,15.60
2023-01-26T05:18:25.298Z,9.87
2023-01-26T05:21:02.571Z,13.17
2023-01-26T05:23:38.662Z,14.17
2023-01-26T05:26:33.808Z,12.93
2023-01-26T05:29:08.069Z,15.90
2023-01-26T05:31:37.016Z,12.60
2023-01-26T05:34:05.068Z,13.63
2023-01-26T05:36:35.339Z,14.53
2023-01-26T05:39:04.014Z,10.10
2023-01-26T05:41:33.381Z,15.33
2023-01-26T05:44:19.264Z,12.10
2023-01-26T05:46:54.996Z,11.17
2023-01-26T05:49:23.577Z,11.40
2023-01-26T05:51:53.020Z,14.33
2023-01-26T05:54:20.659Z,9.93
2023-01-26T05:56:50.790Z,13.30
2023-01-26T05:59:18.617Z,16.53
2023-01-26T06:01:47.547Z,13.30
2023-01-26T06:04:17.087Z,10.30
2023-01-26T06:06:54.127Z,15.63
2023-01-26T06:09:29.545Z,13.93
2023-01-26T06:12:35.340Z,13.33
2023-01-26T06:15:14.270Z,11.53
2023-01-26T06:17:46.073Z,12.67
2023-01-26T06:20:15.799Z,15.23
2023-01-26T06:22:52.061Z,12.27
2023-01-26T06:25:20.168Z,10.17
2023-01-26T06:27:49.226Z,14.77
2023-01-26T06:30:25.441Z,10.53
2023-01-26T06:32:56.180Z,12.13
2023-01-26T06:35:24.435Z,14.40
2023-01-26T06:37:53.508Z,14.00
2023-01-26T06:40:21.533Z,12.10
2023-01-26T06:42:51.143Z,10.90
2023-01-26T06:45:20.873Z,13.00
2023-01-26T06:47:51.253Z,17.30
2023-01-26T06:50:23.552Z,14.40
2023-01-26T06:52:53.435Z,12.13
2023-01-26T06:55:39.726Z,11.90
2023-01-26T06:58:25.654Z,13.37
2023-01-26T07:01:18.568Z,14.10
2023-01-26T07:03:48.635Z,13.97
2023-01-26T07:06:19.225Z,8.13
2023-01-26T07:08:47.576Z,9.87
2023-01-26T07:11:16.885Z,13.50
2023-01-26T07:13:46.235Z,15.10
2023-01-26T07:16:15.678Z,10.50
2023-01-26T07:18:43.962Z,13.87
2023-01-26T07:21:13.303Z,10.77
2023-01-26T07:23:41.376Z,10.90
2023-01-26T07:26:09.743Z,11.20
2023-01-26T07:28:40.110Z,12.50
2023-01-26T07:31:11.923Z,10.90
2023-01-26T07:33:40.130Z,11.63
2023-01-26T07:36:08.325Z,13.50
2023-01-26T07:38:36.495Z,11.43
2023-01-26T07:41:09.900Z,13.40
2023-01-26T07:43:38.773Z,13.30
2023-01-26T07:46:12.319Z,13.30
2023-01-26T07:48:41.041Z,10.40
2023-01-26T07:51:11.541Z,12.70
2023-01-26T07:53:40.364Z,14.13
2023-01-26T07:56:10.734Z,10.23
2023-01-26T07:58:38.992Z,12.73
2023-01-26T08:01:31.639Z,13.03
2023-01-26T08:25:18.094Z,10.20
2023-01-26T08:32:49.486Z,13.50
2023-01-26T08:43:57.779Z,15.77
2023-01-26T08:46:27.256Z,12.53
2023-01-26T08:48:55.902Z,12.83
2023-01-26T08:51:23.577Z,11.60
2023-01-26T08:53:51.737Z,11.63
2023-01-26T08:56:19.720Z,13.40
2023-01-26T08:58:47.934Z,11.57
2023-01-26T09:01:17.162Z,12.30
2023-01-26T09:03:46.343Z,14.27
2023-01-26T09:06:15.882Z,16.00
2023-01-26T09:08:44.410Z,13.73
2023-01-26T09:11:13.116Z,13.43
2023-01-26T09:13:41.917Z,12.43
2023-01-26T09:16:17.036Z,11.10
2023-01-26T09:18:46.466Z,16.53
2023-01-26T09:21:14.107Z,14.13
2023-01-26T09:23:42.149Z,14.33
2023-01-26T09:26:10.025Z,13.27
2023-01-26T09:28:38.103Z,12.90
2023-01-26T09:31:06.606Z,17.83
2023-01-26T09:33:34.877Z,12.97
2023-01-26T09:36:09.743Z,14.23
2023-01-26T09:38:39.133Z,12.83
2023-01-26T09:41:23.663Z,11.97
2023-01-26T09:43:54.527Z,7.57
2023-01-26T09:46:24.910Z,8.50
2023-01-26T09:49:06.509Z,10.63
2023-01-26T09:51:39.439Z,10.47
2023-01-26T09:54:16.957Z,10.10
2023-01-26T09:56:45.365Z,9.83
2023-01-26T09:59:25.179Z,7.60
2023-01-26T10:02:01.013Z,11.40
2023-01-26T10:04:36.453Z,9.97
2023-01-26T10:07:11.893Z,12.27
2023-01-26T10:09:49.293Z,9.93
2023-01-26T10:12:21.007Z,7.67
2023-01-26T10:14:54.671Z,9.03
2023-01-26T10:17:29.653Z,8.13
2023-01-26T10:20:03.856Z,9.60
2023-01-26T10:22:39.995Z,12.30
2023-01-26T10:25:15.552Z,11.87
2023-01-26T10:27:46.308Z,13.30
2023-01-26T10:30:16.781Z,8.27
2023-01-26T10:32:46.933Z,11.17
2023-01-26T10:35:18.880Z,8.27
2023-01-26T10:37:48.491Z,11.50
2023-01-26T10:40:17.462Z,10.30
2023-01-26T10:42:57.056Z,8.07
2023-01-26T10:45:28.082Z,7.93
2023-01-26T10:48:15.315Z,10.10
2023-01-26T10:50:43.573Z,14.73
2023-01-26T10:53:19.088Z,10.67
2023-01-26T10:56:01.292Z,11.40
2023-01-26T10:58:53.937Z,9.80
2023-01-26T11:01:27.260Z,12.60
2023-01-26T11:04:06.823Z,12.03
2023-01-26T11:06:35.437Z,10.43
2023-01-26T11:09:12.589Z,13.10
2023-01-26T11:11:40.408Z,11.27
2023-01-26T11:14:17.320Z,17.93
2023-01-26T11:16:51.180Z,10.90
2023-01-26T11:19:35.533Z,13.13
2023-01-26T11:22:07.661Z,15.13
2023-01-26T11:24:46.554Z,15.13
2023-01-26T11:27:35.689Z,16.53
2023-01-26T11:30:30.655Z,20.33
2023-01-26T11:33:02.970Z,18.73
2023-01-26T11:35:38.093Z,17.10
2023-01-26T11:38:25.305Z,21.57
2023-01-26T11:41:03.024Z,19.63
2023-01-26T11:43:53.001Z,17.13
2023-01-26T11:46:35.937Z,16.00
2023-01-26T11:49:11.533Z,17.73
2023-01-26T11:51:53.508Z,18.00
2023-01-26T11:54:37.536Z,19.47
2023-01-26T11:57:17.153Z,14.43
2023-01-26T11:59:49.832Z,16.10
2023-01-26T12:02:29.521Z,16.23
2023-01-26T12:05:01.257Z,13.03
2023-01-26T12:07:31.914Z,15.03
2023-01-26T12:10:03.587Z,13.00
2023-01-26T12:12:38.665Z,15.90
2023-01-26T12:15:14.267Z,12.80
2023-01-26T12:17:54.023Z,14.17
2023-01-26T12:20:30.507Z,14.37
2023-01-26T12:23:04.685Z,14.13
2023-01-26T12:25:37.116Z,12.37
2023-01-26T12:28:19.595Z,10.63
2023-01-26T12:30:58.759Z,15.53
2023-01-26T12:33:27.455Z,13.87
2023-01-26T12:36:09.275Z,16.90
2023-01-26T12:41:44.007Z,13.77
2023-01-26T12:44:27.555Z,13.67
2023-01-26T12:47:00.856Z,10.37
2023-01-26T12:49:33.684Z,11.90
2023-01-26T12:52:07.399Z,12.60
2023-01-26T12:54:42.013Z,11.63
2023-01-26T12:57:15.912Z,13.07
2023-01-26T12:59:48.524Z,13.77
2023-01-26T13:02:27.711Z,11.17
2023-01-26T13:04:56.960Z,13.43
2023-01-26T13:07:34.987Z,13.80
2023-01-26T13:10:12.386Z,16.30
2023-01-26T13:12:48.313Z,12.93
2023-01-26T13:15:18.955Z,13.50
2023-01-26T13:17:52.459Z,11.43
2023-01-26T13:20:43.452Z,15.17
2023-01-26T13:23:39.974Z,12.77
2023-01-26T13:26:18.483Z,12.70
2023-01-26T13:28:48.598Z,13.27
2023-01-26T13:31:33.241Z,14.17
2023-01-26T13:34:04.800Z,10.77
2023-01-26T13:36:37.647Z,10.67
2023-01-26T13:39:14.997Z,14.00
2023-01-26T13:41:47.424Z,11.03
2023-01-26T13:44:19.755Z,15.23
2023-01-26T13:46:54.993Z,13.33
2023-01-26T13:49:28.452Z,15.67
2023-01-26T13:51:56.060Z,16.93
2023-01-26T13:54:27.355Z,13.40
2023-01-26T13:57:04.764Z,14.73
2023-01-26T13:59:34.098Z,13.37
2023-01-26T14:02:04.942Z,11.37
2023-01-26T14:04:35.283Z,11.90
2023-01-26T14:07:07.183Z,11.93
2023-01-26T14:09:43.852Z,14.60
2023-01-26T14:12:21.896Z,14.77
2023-01-26T14:14:52.307Z,16.47
2023-01-26T14:17:29.237Z,11.70
2023-01-26T14:19:58.226Z,18.17
2023-01-26T14:22:25.824Z,16.60
2023-01-26T14:24:56.045Z,15.10
2023-01-26T14:27:31.606Z,16.13
2023-01-26T14:30:00.874Z,15.20
2023-01-26T14:32:31.551Z,20.90
2023-01-26T14:35:01.743Z,15.97
2023-01-26T14:37:30.464Z,20.50
2023-01-26T14:40:20.703Z,19.57
2023-01-26T14:42:49.952Z,19.10
2023-01-26T14:45:18.307Z,17.80
2023-01-26T14:47:47.462Z,19.50
2023-01-26T14:50:28.534Z,16.03
2023-01-26T14:52:57.272Z,12.40
2023-01-26T14:55:28.359Z,20.27
2023-01-26T14:57:56.884Z,19.67
2023-01-26T15:00:28.607Z,18.10
2023-01-26T15:03:01.161Z,19.27
2023-01-26T15:05:34.968Z,19.13
2023-01-26T15:08:05.033Z,22.40
2023-01-26T15:10:37.302Z,18.40
2023-01-26T15:13:09.529Z,24.00
2023-01-26T15:15:39.699Z,16.20
2023-01-26T15:18:20.493Z,16.83
2023-01-26T15:21:00.179Z,17.97
2023-01-26T15:23:30.690Z,18.27
2023-01-26T15:26:06.962Z,21.50
2023-01-26T15:28:36.378Z,20.40
2023-01-26T15:31:04.667Z,22.73
2023-01-26T15:33:50.051Z,22.20
2023-01-26T15:36:33.514Z,17.40
2023-01-26T15:39:05.457Z,17.40
2023-01-26T15:41:33.175Z,27.57
2023-01-26T15:44:00.808Z,19.00
2023-01-26T15:46:29.532Z,20.57
2023-01-26T15:48:58.819Z,19.93
2023-01-26T15:51:26.438Z,24.00
2023-01-26T15:53:54.508Z,21.73
2023-01-26T15:56:22.636Z,18.87
2023-01-26T15:58:50.453Z,18.27
2023-01-26T16:01:22.131Z,18.50
2023-01-26T16:03:51.063Z,19.93
2023-01-26T16:06:27.899Z,22.63
2023-01-26T16:08:57.182Z,19.57
2023-01-26T16:11:29.151Z,19.03
2023-01-26T16:14:03.292Z,21.30
2023-01-26T16:16:32.336Z,20.57
2023-01-26T16:19:00.821Z,17.37
2023-01-26T16:21:34.920Z,15.13
2023-01-26T16:24:04.649Z,18.77
2023-01-26T16:26:33.345Z,12.93
2023-01-26T16:29:01.920Z,18.43
2023-01-26T16:31:31.626Z,24.30
2023-01-26T16:34:01.396Z,22.83
2023-01-26T16:36:30.925Z,20.13
2023-01-26T16:38:58.564Z,14.90
2023-01-26T16:41:28.853Z,12.60
2023-01-26T16:43:58.531Z,14.53
2023-01-26T16:46:28.076Z,21.33
2023-01-26T16:48:56.454Z,15.77
2023-01-26T16:51:27.949Z,13.87
2023-01-26T16:53:57.356Z,14.90
2023-01-26T16:56:26.002Z,18.63
2023-01-26T16:58:53.673Z,16.33
2023-01-26T17:01:24.597Z,15.13
2023-01-26T17:03:52.699Z,15.00
2023-01-26T17:06:21.367Z,16.07
2023-01-26T17:08:50.301Z,20.23
2023-01-26T17:11:23.034Z,15.27
2023-01-26T17:13:51.153Z,19.23
2023-01-26T17:16:21.935Z,15.60
2023-01-26T17:18:50.724Z,14.33
2023-01-26T17:21:20.186Z,16.50
2023-01-26T17:23:50.627Z,16.23
2023-01-26T17:26:21.341Z,17.00
2023-01-26T17:28:52.021Z,18.50
2023-01-26T17:31:22.107Z,20.50
2023-01-26T17:33:51.569Z,18.00
2023-01-26T17:36:20.105Z,17.43
2023-01-26T17:38:48.504Z,14.27
2023-01-26T17:41:16.620Z,21.83
2023-01-26T17:43:46.333Z,24.63
2023-01-26T17:46:15.601Z,18.83
2023-01-26T17:48:45.355Z,13.43
2023-01-26T17:51:16.525Z,16.80
2023-01-26T17:53:46.137Z,12.50
2023-01-26T17:56:15.906Z,14.40
2023-01-26T17:58:48.766Z,16.27
2023-01-26T18:01:16.727Z,13.03
2023-01-26T18:03:44.920Z,15.87
2023-01-26T18:06:13.136Z,15.90
2023-01-26T18:08:41.208Z,15.30
2023-01-26T18:11:10.821Z,15.83
2023-01-26T18:13:39.207Z,14.93
2023-01-26T18:16:09.993Z,20.93
2023-01-26T18:18:37.931Z,15.57
2023-01-26T18:21:13.314Z,13.80
2023-01-26T18:23:44.448Z,13.23
2023-01-26T18:26:12.077Z,12.63
2023-01-26T18:28:40.441Z,20.33
2023-01-26T18:31:14.415Z,17.83
2023-01-26T18:33:42.415Z,12.77
2023-01-26T18:36:12.501Z,13.47
2023-01-26T18:38:40.525Z,16.20
2023-01-26T18:41:11.075Z,17.00
2023-01-26T18:43:39.598Z,16.20
2023-01-26T18:46:07.829Z,17.67
2023-01-26T18:48:37.076Z,15.20
2023-01-26T18:51:05.616Z,17.87
2023-01-26T18:53:34.773Z,18.73
2023-01-26T18:56:04.928Z,15.03
2023-01-26T18:58:33.879Z,16.43
2023-01-26T19:01:04.136Z,25.80
2023-01-26T19:03:32.842Z,19.30
2023-01-26T19:06:03.737Z,24.10
2023-01-26T19:08:32.701Z,20.70
2023-01-26T19:11:05.066Z,22.30
2023-01-26T19:13:33.189Z,27.60
2023-01-26T19:16:02.256Z,21.87
2023-01-26T19:18:29.952Z,22.17
2023-01-26T19:20:59.522Z,21.20
2023-01-26T19:23:28.937Z,22.07
2023-01-26T19:25:56.889Z,21.83
2023-01-26T19:28:24.492Z,16.63
2023-01-26T19:30:52.220Z,25.13
2023-01-26T19:33:27.880Z,16.00
2023-01-26T19:35:56.878Z,15.83
2023-01-26T19:38:25.015Z,17.03
2023-01-26T19:40:54.212Z,19.17
2023-01-26T19:43:23.272Z,18.80
2023-01-26T19:45:53.880Z,15.40
2023-01-26T19:48:23.223Z,25.93
2023-01-26T19:51:03.108Z,16.57
2023-01-26T19:53:31.591Z,19.10
2023-01-26T19:56:07.524Z,15.70
2023-01-26T19:58:35.888Z,17.70
2023-01-26T20:01:07.863Z,13.20
2023-01-26T20:03:36.216Z,20.33
2023-01-26T20:06:05.286Z,17.93
2023-01-26T20:08:34.201Z,19.67
2023-01-26T20:11:07.187Z,16.30
2023-01-26T20:13:36.039Z,17.80
2023-01-26T20:16:06.684Z,14.53
2023-01-26T20:18:35.992Z,16.53
2023-01-26T20:21:06.403Z,16.73
2023-01-26T20:23:34.369Z,15.40
2023-01-26T20:26:03.292Z,17.40
2023-01-26T20:28:32.526Z,19.73
2023-01-26T20:31:08.159Z,18.17
2023-01-26T20:33:37.223Z,19.67
2023-01-26T20:36:09.690Z,19.70
2023-01-26T20:38:39.230Z,22.50
2023-01-26T20:41:08.666Z,20.50
2023-01-26T20:43:39.680Z,18.70
2023-01-26T20:46:11.071Z,19.57
2023-01-26T20:48:39.796Z,18.90
2023-01-26T20:51:11.784Z,19.53
2023-01-26T20:53:40.217Z,21.13
2023-01-26T20:56:09.271Z,18.93
2023-01-26T20:58:39.571Z,16.13
2023-01-26T21:01:08.499Z,17.00
2023-01-26T21:03:37.568Z,23.13
2023-01-26T21:06:06.484Z,20.73
2023-01-26T21:08:36.553Z,15.83
2023-01-26T21:11:07.668Z,16.77
2023-01-26T21:13:36.331Z,16.47
2023-01-26T21:16:05.885Z,14.93
2023-01-26T21:18:34.364Z,21.10
2023-01-26T21:21:03.573Z,18.90
2023-01-26T21:23:32.458Z,17.67
2023-01-26T21:26:01.491Z,19.10
2023-01-26T21:28:29.727Z,17.43
2023-01-26T21:31:02.093Z,16.70
2023-01-26T21:33:32.123Z,17.30
2023-01-26T21:36:01.759Z,15.67
2023-01-26T21:38:33.014Z,17.10
2023-01-26T21:41:01.908Z,16.93
2023-01-26T21:43:30.793Z,19.17
2023-01-26T21:45:59.648Z,20.30
2023-01-26T21:48:35.611Z,18.93
2023-01-26T21:51:22.572Z,17.07
2023-01-26T21:53:50.176Z,15.00
2023-01-26T21:56:18.663Z,15.87
2023-01-26T21:58:54.468Z,10.70
2023-01-26T22:01:22.453Z,13.63
2023-01-26T22:03:50.091Z,14.53
2023-01-26T22:06:19.193Z,17.20
2023-01-26T22:08:47.160Z,16.10
2023-01-26T22:11:15.491Z,16.10
2023-01-26T22:13:43.864Z,13.73
2023-01-26T22:16:11.481Z,15.53
2023-01-26T22:18:40.307Z,14.70
2023-01-26T22:21:08.690Z,17.23
2023-01-26T22:23:39.958Z,18.07
2023-01-26T22:26:08.722Z,18.10
2023-01-26T22:28:36.677Z,18.97
2023-01-26T22:31:07.873Z,15.57
2023-01-26T22:33:36.202Z,18.53
2023-01-26T22:36:06.386Z,15.53
2023-01-26T22:38:37.210Z,15.43
2023-01-26T22:41:07.828Z,18.53
2023-01-26T22:43:35.610Z,14.50
2023-01-26T22:46:05.304Z,15.30
2023-01-26T22:48:34.116Z,14.83
2023-01-26T22:51:07.750Z,15.77
2023-01-26T22:53:36.482Z,13.40
2023-01-26T22:56:06.750Z,17.03
2023-01-26T22:58:41.827Z,17.10
2023-01-26T23:01:17.134Z,17.70
2023-01-26T23:03:45.550Z,18.90
2023-01-26T23:06:15.559Z,18.27
2023-01-26T23:08:43.662Z,18.90
2023-01-26T23:11:15.397Z,22.03
2023-01-26T23:13:43.979Z,17.57
2023-01-26T23:16:13.159Z,19.80
2023-01-26T23:18:41.384Z,19.00
2023-01-26T23:21:09.073Z,16.57
2023-01-26T23:23:37.121Z,19.70
2023-01-26T23:26:05.803Z,21.20
2023-01-26T23:28:36.543Z,14.17
2023-01-26T23:31:05.090Z,18.40
2023-01-26T23:33:34.619Z,19.50
2023-01-26T23:36:02.924Z,20.07
2023-01-26T23:38:31.375Z,22.20
2023-01-26T23:41:00.435Z,21.17
2023-01-26T23:43:28.559Z,16.63
2023-01-26T23:45:57.791Z,17.67
2023-01-26T23:48:26.932Z,17.63
2023-01-26T23:50:58.019Z,16.43
2023-01-26T23:53:26.660Z,21.13
2023-01-26T23:55:54.214Z,15.57
2023-01-26T23:58:22.494Z,15.50
